createdAt,value
2023-04-02T00:00:10.508Z,90286.02
2023-04-02T00:03:09.955Z,90286.70
2023-04-02T00:05:51.917Z,90289.46
2023-04-02T00:08:25.698Z,90294.25
2023-04-02T00:11:01.986Z,90290.95
2023-04-02T00:13:33.054Z,90291.63
2023-04-02T00:16:04.560Z,90292.34
2023-04-02T00:18:34.331Z,90289.84
2023-04-02T00:21:21.843Z,90278.98
2023-04-02T00:23:50.602Z,90288.02
2023-04-02T00:26:33.119Z,90289.62
2023-04-02T00:29:03.495Z,90291.08
2023-04-02T00:31:33.206Z,90292.81
2023-04-02T00:34:04.967Z,90294.93
2023-04-02T00:36:34.760Z,90293.82
2023-04-02T00:39:08.528Z,90296.44
2023-04-02T00:41:38.942Z,90295.83
2023-04-02T00:44:12.468Z,90297.48
2023-04-02T00:46:49.938Z,90297.81
2023-04-02T00:49:40.343Z,90299.42
2023-04-02T00:52:10.795Z,90298.16
2023-04-02T00:54:45.808Z,90302.23
2023-04-02T00:57:25.698Z,90298.42
2023-04-02T01:00:31.075Z,90300.22
2023-04-02T01:03:34.894Z,90304.86
2023-04-02T01:06:14.430Z,90304.06
2023-04-02T01:08:48.533Z,90305.54
2023-04-02T01:11:35.353Z,90304.73
2023-04-02T01:14:15.376Z,90307.27
2023-04-02T01:17:04.076Z,90313.42
2023-04-02T01:20:07.605Z,90316.19
2023-04-02T01:22:48.128Z,90318.28
2023-04-02T01:25:25.044Z,90321.13
2023-04-02T01:28:09.606Z,90323.84
2023-04-02T01:30:38.422Z,90324.07
2023-04-02T01:33:07.349Z,90327.60
2023-04-02T01:35:40.868Z,90327.02
2023-04-02T01:38:27.491Z,90328.17
2023-04-02T01:41:27.161Z,90330.48
2023-04-02T01:44:07.922Z,90328.58
2023-04-02T01:46:40.842Z,90330.52
2023-04-02T01:49:14.125Z,90329.29
2023-04-02T01:51:45.176Z,90332.48
2023-04-02T01:54:18.139Z,90334.94
2023-04-02T01:56:47.445Z,90336.67
2023-04-02T01:59:20.265Z,90333.52
2023-04-02T02:02:22.219Z,90336.41
2023-04-02T02:04:51.143Z,90333.36
2023-04-02T02:07:21.368Z,90334.81
2023-04-02T02:09:53.271Z,90335.77
2023-04-02T02:12:22.682Z,90336.55
2023-04-02T02:14:52.539Z,90337.34
2023-04-02T02:17:34.565Z,90339.20
2023-04-02T02:20:11.098Z,90337.95
2023-04-02T02:22:51.109Z,90336.92
2023-04-02T02:25:26.904Z,90342.45
2023-04-02T02:28:16.276Z,90342.52
2023-04-02T02:30:51.124Z,90344.67
2023-04-02T02:33:26.100Z,90347.83
2023-04-02T02:36:22.907Z,90346.10
2023-04-02T02:39:17.147Z,90345.19
2023-04-02T02:42:01.304Z,90349.46
2023-04-02T02:44:35.268Z,90351.77
2023-04-02T02:47:06.994Z,90350.08
2023-04-02T02:49:46.231Z,90355.52
2023-04-02T02:52:21.647Z,90359.23
2023-04-02T02:55:02.795Z,90358.89
2023-04-02T02:57:48.385Z,90363.05
2023-04-02T03:00:19.865Z,90362.37
2023-04-02T03:02:50.145Z,90361.27
2023-04-02T03:05:22.371Z,90362.88
2023-04-02T03:07:55.580Z,90366.72
2023-04-02T03:10:42.866Z,90374.81
2023-04-02T03:13:29.518Z,90375.48
2023-04-02T03:16:09.221Z,90378.44
2023-04-02T03:18:41.793Z,90381.06
2023-04-02T03:21:35.374Z,90384.52
2023-04-02T03:24:12.461Z,90385.33
2023-04-02T03:26:55.479Z,90386.19
2023-04-02T03:29:28.091Z,90392.30
2023-04-02T03:32:02.718Z,90390.67
2023-04-02T03:34:56.771Z,90392.90
2023-04-02T03:37:47.277Z,90395.28
2023-04-02T03:40:22.491Z,90392.63
2023-04-02T03:42:55.409Z,90392.88
2023-04-02T03:45:28.621Z,90400.05
2023-04-02T03:48:07.392Z,90405.25
2023-04-02T03:50:36.180Z,90407.52
2023-04-02T03:53:05.752Z,90408.02
2023-04-02T03:55:38.170Z,90411.29
2023-04-02T03:58:13.366Z,90415.52
2023-04-02T04:01:00.610Z,90423.75
2023-04-02T04:03:57.762Z,90424.45
2023-04-02T04:06:35.110Z,90426.39
2023-04-02T04:09:06.191Z,90427.80
2023-04-02T04:11:39.545Z,90433.14
2023-04-02T04:14:15.482Z,90438.58
2023-04-02T04:16:55.988Z,90436.05
2023-04-02T04:19:33.826Z,90439.38
2023-04-02T04:22:34.060Z,90442.80
2023-04-02T04:25:35.173Z,90446.52
2023-04-02T04:28:38.586Z,90451.48
2023-04-02T04:31:27.223Z,90454.02
2023-04-02T04:34:03.900Z,90458.57
2023-04-02T04:36:41.610Z,90458.37
2023-04-02T04:39:18.451Z,90463.66
2023-04-02T04:41:51.558Z,90466.48
2023-04-02T04:44:52.467Z,90470.36
2023-04-02T04:47:27.285Z,90471.66
2023-04-02T04:50:04.119Z,90472.98
2023-04-02T04:52:37.502Z,90473.70
2023-04-02T04:55:44.954Z,90472.39
2023-04-02T04:58:22.724Z,90478.52
2023-04-02T05:01:23.619Z,90478.98
2023-04-02T05:04:00.875Z,90483.35
2023-04-02T05:06:35.529Z,90482.80
2023-04-02T05:09:33.424Z,90479.15
2023-04-02T05:12:18.336Z,90482.14
2023-04-02T05:14:56.226Z,90485.52
2023-04-02T05:17:36.203Z,90484.36
2023-04-02T05:20:28.540Z,90483.58
2023-04-02T05:23:25.128Z,90484.61
2023-04-02T05:26:13.525Z,90491.84
2023-04-02T05:28:58.747Z,90489.51
2023-04-02T05:31:42.848Z,90488.10
2023-04-02T05:34:13.362Z,90490.66
2023-04-02T05:36:46.997Z,90487.70
2023-04-02T05:39:22.277Z,90491.23
2023-04-02T05:42:02.712Z,90491.14
2023-04-02T05:44:56.288Z,90495.80
2023-04-02T05:47:30.273Z,90496.38
2023-04-02T05:50:05.911Z,90499.02
2023-04-02T05:52:46.282Z,90499.26
2023-04-02T05:55:17.351Z,90501.45
2023-04-02T05:58:21.473Z,90500.92
2023-04-02T06:00:54.144Z,90506.11
2023-04-02T06:03:52.452Z,90508.79
2023-04-02T06:06:36.085Z,90515.04
2023-04-02T06:09:14.579Z,90516.20
2023-04-02T06:11:52.017Z,90519.73
2023-04-02T06:14:20.933Z,90518.63
2023-04-02T06:16:50.224Z,90520.91
2023-04-02T06:19:27.772Z,90522.27
2023-04-02T06:22:07.515Z,90526.10
2023-04-02T06:24:40.512Z,90524.52
2023-04-02T06:27:13.174Z,90525.20
2023-04-02T06:29:45.988Z,90526.83
2023-04-02T06:32:22.439Z,90523.06
2023-04-02T06:34:50.784Z,90525.67
2023-04-02T06:37:40.326Z,90525.97
2023-04-02T06:40:42.784Z,90528.66
2023-04-02T06:43:36.474Z,90529.87
2023-04-02T06:46:34.512Z,90530.10
2023-04-02T06:49:23.506Z,90532.41
2023-04-02T06:51:58.806Z,90537.58
2023-04-02T06:54:27.179Z,90535.31
2023-04-02T06:56:59.698Z,90538.44
2023-04-02T06:59:32.466Z,90539.34
2023-04-02T07:02:06.761Z,90544.25
2023-04-02T07:04:35.474Z,90547.30
2023-04-02T07:07:04.622Z,90551.37
2023-04-02T07:09:36.618Z,90553.95
2023-04-02T07:12:13.503Z,90555.49
2023-04-02T07:14:42.673Z,90559.73
2023-04-02T07:17:18.094Z,90561.66
2023-04-02T07:19:49.741Z,90563.61
2023-04-02T07:22:21.308Z,90568.18
2023-04-02T07:24:53.576Z,90569.89
2023-04-02T07:27:21.749Z,90565.00
2023-04-02T07:29:49.931Z,90568.71
2023-04-02T07:32:19.663Z,90573.31
2023-04-02T07:34:49.041Z,90572.23
2023-04-02T07:37:17.390Z,90571.20
2023-04-02T07:39:45.640Z,90574.83
2023-04-02T07:42:13.814Z,90578.42
2023-04-02T07:44:41.990Z,90580.31
2023-04-02T07:47:10.759Z,90580.52
2023-04-02T07:49:39.073Z,90582.27
2023-04-02T07:52:07.486Z,90585.94
2023-04-02T07:54:40.015Z,90587.92
2023-04-02T07:57:08.343Z,90589.48
2023-04-02T07:59:36.556Z,90588.14
2023-04-02T08:02:04.713Z,90589.06
2023-04-02T08:04:32.837Z,90591.71
2023-04-02T08:07:01.790Z,90596.96
2023-04-02T08:09:29.981Z,90595.91
2023-04-02T08:11:58.084Z,90593.60
2023-04-02T08:14:26.405Z,90597.68
2023-04-02T08:16:56.201Z,90601.77
2023-04-02T08:19:24.773Z,90601.77
2023-04-02T08:21:53.944Z,90601.77
2023-04-02T08:24:22.862Z,90601.70
2023-04-02T08:26:54.511Z,90608.52
2023-04-02T08:29:23.163Z,90611.79
2023-04-02T08:31:51.501Z,90612.20
2023-04-02T08:34:19.708Z,90609.05
2023-04-02T08:36:47.923Z,90610.05
2023-04-02T08:39:16.210Z,90611.11
2023-04-02T08:42:17.270Z,90609.15
2023-04-02T08:45:24.374Z,90612.00
2023-04-02T08:47:57.697Z,90612.39
2023-04-02T08:50:34.196Z,90610.54
2023-04-02T08:53:06.080Z,90617.33
2023-04-02T08:55:56.104Z,90620.50
2023-04-02T08:58:47.031Z,90622.33
2023-04-02T09:01:42.672Z,90626.20
2023-04-02T09:04:17.213Z,90626.00
2023-04-02T09:06:46.322Z,90631.03
2023-04-02T09:09:16.834Z,90631.48
2023-04-02T09:11:56.460Z,90637.77
2023-04-02T09:14:34.601Z,90638.31
2023-04-02T09:17:04.637Z,90640.69
2023-04-02T09:19:45.118Z,90637.11
2023-04-02T09:22:22.640Z,90641.55
2023-04-02T09:24:59.057Z,90643.97
2023-04-02T09:27:33.076Z,90641.72
2023-04-02T09:30:08.322Z,90645.23
2023-04-02T09:32:46.627Z,90643.04
2023-04-02T09:35:39.718Z,90647.33
2023-04-02T09:38:07.998Z,90642.42
2023-04-02T09:41:05.341Z,90644.69
2023-04-02T09:43:38.801Z,90647.46
2023-04-02T09:46:27.381Z,90648.27
2023-04-02T09:49:00.940Z,90650.42
2023-04-02T09:51:35.263Z,90658.55
2023-04-02T09:54:03.528Z,90658.92
2023-04-02T09:56:39.816Z,90659.23
2023-04-02T09:59:13.733Z,90659.16
2023-04-02T10:01:44.958Z,90665.42
2023-04-02T10:04:46.013Z,90665.24
2023-04-02T10:07:43.969Z,90665.39
2023-04-02T10:10:31.825Z,90667.48
2023-04-02T10:13:21.592Z,90670.34
2023-04-02T10:16:05.993Z,90671.23
2023-04-02T10:18:59.613Z,90671.14
2023-04-02T10:21:37.488Z,90674.81
2023-04-02T10:24:27.694Z,90675.23
2023-04-02T10:26:59.677Z,90676.27
2023-04-02T10:29:36.659Z,90678.42
2023-04-02T10:32:41.581Z,90680.77
2023-04-02T10:35:35.926Z,90679.90
2023-04-02T10:38:19.482Z,90677.11
2023-04-02T10:41:27.099Z,90675.26
2023-04-02T10:44:19.918Z,90672.38
2023-04-02T10:47:09.210Z,90677.98
2023-04-02T10:49:49.384Z,90679.40
2023-04-02T10:52:23.670Z,90678.54
2023-04-02T10:54:58.358Z,90678.77
2023-04-02T10:57:35.501Z,90682.43
2023-04-02T11:00:16.229Z,90685.23
2023-04-02T11:02:53.818Z,90693.02
2023-04-02T11:05:49.392Z,90691.99
2023-04-02T11:08:23.231Z,90688.48
2023-04-02T11:11:10.028Z,90683.18
2023-04-02T11:14:06.101Z,90680.66
2023-04-02T11:16:36.165Z,90686.13
2023-04-02T11:19:16.044Z,90683.95
2023-04-02T11:21:57.374Z,90683.11
2023-04-02T11:24:30.524Z,90678.45
2023-04-02T11:27:08.022Z,90682.10
2023-04-02T11:29:46.249Z,90685.69
2023-04-02T11:32:20.697Z,90689.48
2023-04-02T11:34:56.476Z,90692.96
2023-04-02T11:37:37.702Z,90697.40
2023-04-02T11:40:12.063Z,90699.95
2023-04-02T11:42:44.574Z,90698.06
2023-04-02T11:45:24.667Z,90700.15
2023-04-02T11:48:02.068Z,90704.48
2023-04-02T11:50:42.980Z,90706.35
2023-04-02T11:53:14.915Z,90709.89
2023-04-02T11:56:05.955Z,90710.27
2023-04-02T11:58:51.743Z,90714.14
2023-04-02T12:01:30.230Z,90717.94
2023-04-02T12:04:17.315Z,90717.84
2023-04-02T12:06:51.801Z,90715.84
2023-04-02T12:09:25.620Z,90715.21
2023-04-02T12:12:00.129Z,90713.95
2023-04-02T12:14:51.414Z,90713.30
2023-04-02T12:17:28.455Z,90715.44
2023-04-02T12:20:08.491Z,90711.36
2023-04-02T12:22:51.025Z,90707.27
2023-04-02T12:25:19.221Z,90702.81
2023-04-02T12:27:47.968Z,90703.18
2023-04-02T12:30:24.096Z,90701.35
2023-04-02T12:32:57.024Z,90700.00
2023-04-02T12:35:33.486Z,90701.42
2023-04-02T12:38:02.333Z,90699.66
2023-04-02T12:40:30.694Z,90691.13
2023-04-02T12:42:58.902Z,90691.20
2023-04-02T12:45:32.460Z,90694.61
2023-04-02T12:48:05.494Z,90695.97
2023-04-02T12:50:34.808Z,90697.34
2023-04-02T12:53:03.641Z,90696.41
2023-04-02T12:55:33.717Z,90696.85
2023-04-02T12:58:01.898Z,90698.89
2023-04-02T13:00:32.053Z,90701.52
2023-04-02T13:03:06.214Z,90702.73
2023-04-02T13:05:50.200Z,90701.10
2023-04-02T13:08:39.473Z,90706.42
2023-04-02T13:11:07.893Z,90708.90
2023-04-02T13:13:38.740Z,90712.94
2023-04-02T13:16:25.937Z,90715.06
2023-04-02T13:19:22.242Z,90720.84
2023-04-02T13:21:51.847Z,90728.61
2023-04-02T13:24:22.691Z,90731.63
2023-04-02T13:26:53.908Z,90735.23
2023-04-02T13:29:35.011Z,90737.25
2023-04-02T13:32:12.741Z,90739.83
2023-04-02T13:34:40.905Z,90737.16
2023-04-02T13:37:13.015Z,90739.02
2023-04-02T13:39:41.293Z,90741.34
2023-04-02T13:42:11.950Z,90739.34
2023-04-02T13:44:40.382Z,90733.73
2023-04-02T13:47:14.178Z,90737.52
2023-04-02T13:49:42.237Z,90737.15
2023-04-02T13:52:16.080Z,90732.70
2023-04-02T13:54:51.756Z,90731.39
2023-04-02T13:57:19.961Z,90730.35
2023-04-02T13:59:48.255Z,90730.06
2023-04-02T14:02:20.542Z,90730.98
2023-04-02T14:04:57.307Z,90727.58
2023-04-02T14:07:34.611Z,90726.14
2023-04-02T14:10:24.756Z,90724.69
2023-04-02T14:13:31.154Z,90721.04
2023-04-02T14:16:07.135Z,90728.37
2023-04-02T14:18:57.067Z,90726.10
2023-04-02T14:21:52.377Z,90729.25
2023-04-02T14:24:27.204Z,90730.70
2023-04-02T14:27:07.276Z,90734.73
2023-04-02T14:29:42.678Z,90737.40
2023-04-02T14:32:25.738Z,90739.27
2023-04-02T14:35:08.880Z,90738.42
2023-04-02T14:37:46.222Z,90739.36
2023-04-02T14:40:20.208Z,90733.35
2023-04-02T14:43:01.851Z,90733.57
2023-04-02T14:45:49.164Z,90735.63
2023-04-02T14:48:24.842Z,90738.05
2023-04-02T14:51:12.753Z,90740.91
2023-04-02T14:53:42.236Z,90738.50
2023-04-02T14:56:13.222Z,90740.20
2023-04-02T14:58:48.420Z,90741.55
2023-04-02T15:01:25.600Z,90741.90
2023-04-02T15:04:02.246Z,90741.70
2023-04-02T15:06:41.825Z,90737.36
2023-04-02T15:09:41.084Z,90738.11
2023-04-02T15:12:17.263Z,90738.50
2023-04-02T15:14:47.845Z,90738.28
2023-04-02T15:17:16.189Z,90739.31
2023-04-02T15:19:47.319Z,90737.66
2023-04-02T15:22:39.476Z,90743.98
2023-04-02T15:25:41.449Z,90746.89
2023-04-02T15:28:27.023Z,90748.65
2023-04-02T15:30:59.076Z,90750.49
2023-04-02T15:33:44.696Z,90754.73
2023-04-02T15:36:42.537Z,90760.29
2023-04-02T15:39:26.260Z,90759.48
2023-04-02T15:42:13.319Z,90759.12
2023-04-02T15:45:13.925Z,90763.45
2023-04-02T15:47:54.396Z,90766.87
2023-04-02T15:50:42.054Z,90771.63
2023-04-02T15:53:38.755Z,90776.33
2023-04-02T15:56:28.444Z,90780.19
2023-04-02T15:59:26.095Z,90779.42
2023-04-02T16:02:07.181Z,90777.84
2023-04-02T16:04:39.363Z,90780.19
2023-04-02T16:07:22.764Z,90782.27
2023-04-02T16:10:00.603Z,90784.98
2023-04-02T16:12:30.893Z,90788.24
2023-04-02T16:15:11.093Z,90788.95
2023-04-02T16:17:44.581Z,90791.98
2023-04-02T16:20:22.103Z,90793.86
2023-04-02T16:23:11.574Z,90794.66
2023-04-02T16:26:28.021Z,90798.12
2023-04-02T16:29:02.372Z,90799.81
2023-04-02T16:31:58.657Z,90802.05
2023-04-02T16:34:39.005Z,90801.05
2023-04-02T16:37:44.691Z,90803.45
2023-04-02T16:40:57.128Z,90808.45
2023-04-02T16:43:47.456Z,90810.52
2023-04-02T16:46:46.670Z,90809.95
2023-04-02T16:49:47.366Z,90814.89
2023-04-02T16:52:47.410Z,90812.56
2023-04-02T16:55:54.720Z,90814.19
2023-04-02T16:58:41.409Z,90817.39
2023-04-02T17:01:45.068Z,90822.39
2023-04-02T17:04:27.622Z,90827.30
2023-04-02T17:07:30.400Z,90827.33
2023-04-02T17:10:17.280Z,90827.12
2023-04-02T17:12:52.584Z,90829.06
2023-04-02T17:15:28.411Z,90831.60
2023-04-02T17:17:59.007Z,90835.35
2023-04-02T17:20:28.308Z,90835.89
2023-04-02T17:22:57.338Z,90840.48
2023-04-02T17:25:35.211Z,90844.70
2023-04-02T17:28:09.332Z,90850.83
2023-04-02T17:30:54.615Z,90856.25
2023-04-02T17:33:26.906Z,90858.70
2023-04-02T17:36:16.696Z,90862.91
2023-04-02T17:38:56.892Z,90865.20
2023-04-02T17:41:41.329Z,90865.45
2023-04-02T17:44:20.526Z,90867.97
2023-04-02T17:46:58.756Z,90874.45
2023-04-02T17:50:04.686Z,90877.41
2023-04-02T17:52:53.474Z,90880.95
2023-04-02T17:55:40.674Z,90887.89
2023-04-02T17:58:27.173Z,90884.36
2023-04-02T18:01:18.735Z,90892.11
2023-04-02T18:04:05.886Z,90892.49
2023-04-02T18:06:52.292Z,90898.06
2023-04-02T18:09:41.572Z,90899.20
2023-04-02T18:12:18.973Z,90902.16
2023-04-02T18:14:55.810Z,90899.45
2023-04-02T18:17:52.152Z,90904.27
2023-04-02T18:20:28.351Z,90906.75
2023-04-02T18:23:21.312Z,90907.84
2023-04-02T18:25:52.450Z,90904.38
2023-04-02T18:28:20.645Z,90905.91
2023-04-02T18:30:59.082Z,90910.80
2023-04-02T18:33:39.498Z,90907.52
2023-04-02T18:36:29.370Z,90910.13
2023-04-02T18:39:09.147Z,90907.58
2023-04-02T18:41:57.290Z,90916.36
2023-04-02T18:44:34.414Z,90919.63
2023-04-02T18:47:15.813Z,90914.25
2023-04-02T18:49:51.938Z,90920.39
2023-04-02T18:52:21.574Z,90919.51
2023-04-02T18:55:00.140Z,90922.62
2023-04-02T18:57:38.630Z,90923.58
2023-04-02T19:00:33.883Z,90924.69
2023-04-02T19:03:02.180Z,90925.28
2023-04-02T19:05:54.133Z,90925.23
2023-04-02T19:08:34.306Z,90925.75
2023-04-02T19:11:09.310Z,90924.09
2023-04-02T19:13:37.533Z,90924.84
2023-04-02T19:16:47.150Z,90926.97
2023-04-02T19:19:22.167Z,90926.31
2023-04-02T19:22:38.562Z,90927.84
2023-04-02T19:25:23.258Z,90933.63
2023-04-02T19:28:30.445Z,90932.42
2023-04-02T19:31:11.096Z,90933.80
2023-04-02T19:33:42.774Z,90937.52
2023-04-02T19:36:39.305Z,90935.97
2023-04-02T19:39:46.655Z,90930.75
2023-04-02T19:42:30.601Z,90932.88
2023-04-02T19:45:02.674Z,90933.27
2023-04-02T19:47:31.375Z,90936.35
2023-04-02T19:49:59.680Z,90937.83
2023-04-02T19:52:27.866Z,90939.08
2023-04-02T19:54:55.993Z,90941.23
2023-04-02T19:57:24.514Z,90942.80
2023-04-02T19:59:52.740Z,90945.95
2023-04-02T20:02:21.004Z,90941.54
2023-04-02T20:04:49.268Z,90945.40
2023-04-02T20:07:17.455Z,90948.37
2023-04-02T20:09:45.775Z,90947.76
2023-04-02T20:12:13.980Z,90946.77
2023-04-02T20:14:42.281Z,90947.02
2023-04-02T20:17:10.538Z,90943.54
2023-04-02T20:19:38.770Z,90947.39
2023-04-02T20:22:06.987Z,90944.27
2023-04-02T20:24:35.274Z,90949.83
2023-04-02T20:27:03.413Z,90951.61
2023-04-02T20:29:32.411Z,90951.40
2023-04-02T20:32:00.480Z,90950.62
2023-04-02T20:34:29.086Z,90948.48
2023-04-02T20:36:58.089Z,90953.08
2023-04-02T20:39:26.223Z,90951.06
2023-04-02T20:41:55.718Z,90954.13
2023-04-02T20:44:23.933Z,90952.19
2023-04-02T20:46:52.124Z,90957.09
2023-04-02T20:49:20.280Z,90957.58
2023-04-02T20:51:49.588Z,90959.05
2023-04-02T20:54:17.877Z,90959.81
2023-04-02T20:56:46.026Z,90958.36
2023-04-02T20:59:14.221Z,90957.65
2023-04-02T21:01:42.794Z,90961.50
2023-04-02T21:04:11.547Z,90957.95
2023-04-02T21:06:40.808Z,90960.79
2023-04-02T21:09:15.421Z,90961.59
2023-04-02T21:11:44.539Z,90961.42
2023-04-02T21:14:12.871Z,90963.18
2023-04-02T21:16:41.986Z,90962.57
2023-04-02T21:19:11.081Z,90962.11
2023-04-02T21:21:40.533Z,90964.11
2023-04-02T21:24:09.867Z,90961.65
2023-04-02T21:26:40.680Z,90962.67
2023-04-02T21:29:10.945Z,90965.50
2023-04-02T21:31:40.893Z,90966.11
2023-04-02T21:34:12.999Z,90965.60
2023-04-02T21:36:44.257Z,90965.61
2023-04-02T21:39:18.108Z,90966.79
2023-04-02T21:41:50.235Z,90969.28
2023-04-02T21:44:21.135Z,90969.61
2023-04-02T21:46:52.171Z,90974.08
2023-04-02T21:49:23.581Z,90971.16
2023-04-02T21:51:52.401Z,90972.62
2023-04-02T21:54:20.701Z,90972.90
2023-04-02T21:56:49.708Z,90970.53
2023-04-02T21:59:18.670Z,90969.82
2023-04-02T22:01:50.049Z,90973.65
2023-04-02T22:04:21.713Z,90971.64
2023-04-02T22:06:52.314Z,90970.79
2023-04-02T22:09:26.265Z,90974.49
2023-04-02T22:12:00.501Z,90973.80
2023-04-02T22:14:29.576Z,90972.56
2023-04-02T22:16:59.068Z,90974.64
2023-04-02T22:19:27.650Z,90973.02
2023-04-02T22:21:56.905Z,90969.75
2023-04-02T22:24:25.506Z,90969.98
2023-04-02T22:26:54.310Z,90968.94
2023-04-02T22:29:22.538Z,90971.16
2023-04-02T22:31:51.220Z,90974.13
2023-04-02T22:34:19.516Z,90967.48
2023-04-02T22:36:47.618Z,90969.36
2023-04-02T22:39:17.092Z,90971.55
2023-04-02T22:41:45.384Z,90971.38
2023-04-02T22:44:15.533Z,90971.41
2023-04-02T22:46:43.889Z,90973.31
2023-04-02T22:49:12.522Z,90973.95
2023-04-02T22:51:40.993Z,90973.95
2023-04-02T22:54:09.152Z,90971.21
2023-04-02T22:56:37.804Z,90971.20
2023-04-02T22:59:06.094Z,90971.89
2023-04-02T23:01:35.851Z,90970.55
2023-04-02T23:04:05.454Z,90974.05
2023-04-02T23:06:34.000Z,90971.94
2023-04-02T23:09:02.273Z,90971.45
2023-04-02T23:11:30.404Z,90970.27
2023-04-02T23:13:59.231Z,90966.47
2023-04-02T23:16:29.401Z,90966.58
2023-04-02T23:18:58.370Z,90967.49
2023-04-02T23:21:27.058Z,90965.77
2023-04-02T23:23:55.473Z,90965.45
2023-04-02T23:26:29.338Z,90966.25
2023-04-02T23:28:59.097Z,90966.73
2023-04-02T23:31:28.267Z,90966.09
2023-04-02T23:33:56.459Z,90965.24
2023-04-02T23:36:28.052Z,90965.08
2023-04-02T23:39:01.420Z,90964.18
2023-04-02T23:41:31.064Z,90961.75
2023-04-02T23:43:59.781Z,90963.88
2023-04-02T23:46:29.450Z,90963.05
2023-04-02T23:48:59.614Z,90965.53
2023-04-02T23:51:29.240Z,90963.58
2023-04-02T23:53:57.499Z,90964.19
2023-04-02T23:56:26.107Z,90964.92
2023-04-02T23:58:54.336Z,90962.61
